sensor_id;sensor_type;location;lat;lon;timestamp;temperature;humidity
21318;DHT22;10818;50.830;6.524;2023-02-28T00:00:08;0.00;99.90
21318;DHT22;10818;50.830;6.524;2023-02-28T00:05:12;0.00;99.90
21318;DHT22;10818;50.830;6.524;2023-02-28T00:10:14;-0.20;99.90
21318;DHT22;10818;50.830;6.524;2023-02-28T00:15:15;-0.20;99.90
21318;DHT22;10818;50.830;6.524;2023-02-28T00:20:16;-0.20;99.90
21318;DHT22;10818;50.830;6.524;2023-02-28T00:25:17;-0.30;99.90
21318;DHT22;10818;50.830;6.524;2023-02-28T00:30:19;-0.30;99.90
21318;DHT22;10818;50.830;6.524;2023-02-28T00:35:20;-0.30;99.90
21318;DHT22;10818;50.830;6.524;2023-02-28T00:40:20;-0.20;99.90
21318;DHT22;10818;50.830;6.524;2023-02-28T00:45:21;-0.30;99.90
21318;DHT22;10818;50.830;6.524;2023-02-28T00:50:21;-0.30;99.90
21318;DHT22;10818;50.830;6.524;2023-02-28T00:55:21;-0.30;99.90
21318;DHT22;10818;50.830;6.524;2023-02-28T01:00:22;-0.50;99.90
21318;DHT22;10818;50.830;6.524;2023-02-28T01:05:22;-0.50;99.90
21318;DHT22;10818;50.830;6.524;2023-02-28T01:10:24;-0.60;99.90
21318;DHT22;10818;50.830;6.524;2023-02-28T01:15:25;-0.70;99.90
21318;DHT22;10818;50.830;6.524;2023-02-28T01:20:25;-0.80;99.90
21318;DHT22;10818;50.830;6.524;2023-02-28T01:25:26;-0.80;99.90
21318;DHT22;10818;50.830;6.524;2023-02-28T01:30:26;-0.90;99.90
21318;DHT22;10818;50.830;6.524;2023-02-28T01:35:27;-0.80;99.90
21318;DHT22;10818;50.830;6.524;2023-02-28T01:40:27;-0.80;99.90
21318;DHT22;10818;50.830;6.524;2023-02-28T01:45:31;-0.80;99.90
21318;DHT22;10818;50.830;6.524;2023-02-28T01:50:33;-0.90;99.90
21318;DHT22;10818;50.830;6.524;2023-02-28T01:55:35;-0.90;99.90
21318;DHT22;10818;50.830;6.524;2023-02-28T02:00:35;-0.90;99.90
21318;DHT22;10818;50.830;6.524;2023-02-28T02:05:37;-1.00;99.90
21318;DHT22;10818;50.830;6.524;2023-02-28T02:15:43;-1.00;99.90
21318;DHT22;10818;50.830;6.524;2023-02-28T02:21:02;-1.00;99.90
21318;DHT22;10818;50.830;6.524;2023-02-28T02:36:35;-1.10;99.90
21318;DHT22;10818;50.830;6.524;2023-02-28T02:41:47;-1.10;99.90
21318;DHT22;10818;50.830;6.524;2023-02-28T02:46:51;-1.10;99.90
21318;DHT22;10818;50.830;6.524;2023-02-28T02:51:52;-1.20;99.90
21318;DHT22;10818;50.830;6.524;2023-02-28T02:56:53;-1.20;99.90
21318;DHT22;10818;50.830;6.524;2023-02-28T03:02:01;-1.20;99.90
21318;DHT22;10818;50.830;6.524;2023-02-28T03:07:03;-1.20;99.90
21318;DHT22;10818;50.830;6.524;2023-02-28T03:12:04;-1.20;99.90
21318;DHT22;10818;50.830;6.524;2023-02-28T03:22:24;-1.10;99.90
21318;DHT22;10818;50.830;6.524;2023-02-28T03:27:30;-1.10;99.90
21318;DHT22;10818;50.830;6.524;2023-02-28T03:37:41;-1.20;99.90
21318;DHT22;10818;50.830;6.524;2023-02-28T03:42:44;-1.20;99.90
21318;DHT22;10818;50.830;6.524;2023-02-28T03:47:51;-1.20;99.90
21318;DHT22;10818;50.830;6.524;2023-02-28T03:53:12;-1.30;99.90
21318;DHT22;10818;50.830;6.524;2023-02-28T03:58:15;-1.40;99.90
21318;DHT22;10818;50.830;6.524;2023-02-28T04:03:19;-1.40;99.90
21318;DHT22;10818;50.830;6.524;2023-02-28T04:08:20;-1.40;99.90
21318;DHT22;10818;50.830;6.524;2023-02-28T04:13:20;-1.40;99.90
21318;DHT22;10818;50.830;6.524;2023-02-28T04:18:21;-1.40;99.90
21318;DHT22;10818;50.830;6.524;2023-02-28T04:23:21;-1.40;99.90
21318;DHT22;10818;50.830;6.524;2023-02-28T04:28:22;-1.50;99.90
21318;DHT22;10818;50.830;6.524;2023-02-28T04:33:22;-1.40;99.90
21318;DHT22;10818;50.830;6.524;2023-02-28T04:38:23;-1.40;99.90
21318;DHT22;10818;50.830;6.524;2023-02-28T04:43:23;-1.40;99.90
21318;DHT22;10818;50.830;6.524;2023-02-28T04:48:24;-1.50;99.90
21318;DHT22;10818;50.830;6.524;2023-02-28T04:53:25;-1.50;99.90
21318;DHT22;10818;50.830;6.524;2023-02-28T04:58:25;-1.50;99.90
21318;DHT22;10818;50.830;6.524;2023-02-28T05:03:26;-1.50;99.90
21318;DHT22;10818;50.830;6.524;2023-02-28T05:08:26;-1.70;99.90
21318;DHT22;10818;50.830;6.524;2023-02-28T05:13:29;-1.70;99.90
21318;DHT22;10818;50.830;6.524;2023-02-28T05:18:30;-1.80;99.90
21318;DHT22;10818;50.830;6.524;2023-02-28T05:23:30;-1.80;99.90
21318;DHT22;10818;50.830;6.524;2023-02-28T05:28:31;-1.80;99.90
21318;DHT22;10818;50.830;6.524;2023-02-28T05:33:31;-1.80;99.90
21318;DHT22;10818;50.830;6.524;2023-02-28T05:38:32;-1.90;99.90
21318;DHT22;10818;50.830;6.524;2023-02-28T05:43:32;-1.90;99.90
21318;DHT22;10818;50.830;6.524;2023-02-28T05:48:33;-2.00;99.90
21318;DHT22;10818;50.830;6.524;2023-02-28T05:53:34;-2.00;99.90
21318;DHT22;10818;50.830;6.524;2023-02-28T05:58:34;-2.00;99.90
21318;DHT22;10818;50.830;6.524;2023-02-28T06:03:35;-1.90;99.90
21318;DHT22;10818;50.830;6.524;2023-02-28T06:08:35;-1.90;99.90
21318;DHT22;10818;50.830;6.524;2023-02-28T06:13:36;-2.00;99.90
21318;DHT22;10818;50.830;6.524;2023-02-28T06:18:36;-2.10;99.90
21318;DHT22;10818;50.830;6.524;2023-02-28T06:23:37;-2.10;99.90
21318;DHT22;10818;50.830;6.524;2023-02-28T06:28:38;-2.10;99.90
21318;DHT22;10818;50.830;6.524;2023-02-28T06:33:38;-2.10;99.90
21318;DHT22;10818;50.830;6.524;2023-02-28T06:38:39;-2.00;99.90
21318;DHT22;10818;50.830;6.524;2023-02-28T06:43:41;-2.00;99.90
21318;DHT22;10818;50.830;6.524;2023-02-28T06:48:45;-2.00;99.90
21318;DHT22;10818;50.830;6.524;2023-02-28T06:53:46;-1.90;99.90
21318;DHT22;10818;50.830;6.524;2023-02-28T06:58:49;-1.80;99.90
21318;DHT22;10818;50.830;6.524;2023-02-28T07:03:50;-1.80;99.90
21318;DHT22;10818;50.830;6.524;2023-02-28T07:08:52;-1.80;99.90
21318;DHT22;10818;50.830;6.524;2023-02-28T07:13:53;-1.70;99.90
21318;DHT22;10818;50.830;6.524;2023-02-28T07:18:54;-1.60;99.90
21318;DHT22;10818;50.830;6.524;2023-02-28T07:23:55;-1.50;99.90
21318;DHT22;10818;50.830;6.524;2023-02-28T07:28:56;-1.40;99.90
21318;DHT22;10818;50.830;6.524;2023-02-28T07:33:57;-1.20;99.90
21318;DHT22;10818;50.830;6.524;2023-02-28T07:38:57;-1.00;99.90
21318;DHT22;10818;50.830;6.524;2023-02-28T07:43:58;-0.80;99.90
21318;DHT22;10818;50.830;6.524;2023-02-28T07:48:59;-0.60;99.90
21318;DHT22;10818;50.830;6.524;2023-02-28T07:54:00;-0.30;99.90
21318;DHT22;10818;50.830;6.524;2023-02-28T07:59:00;0.10;99.90
21318;DHT22;10818;50.830;6.524;2023-02-28T08:04:01;0.50;99.90
21318;DHT22;10818;50.830;6.524;2023-02-28T08:09:02;0.60;99.90
21318;DHT22;10818;50.830;6.524;2023-02-28T08:14:02;1.10;99.90
21318;DHT22;10818;50.830;6.524;2023-02-28T08:19:03;4.70;99.90
21318;DHT22;10818;50.830;6.524;2023-02-28T08:24:03;9.80;99.90
21318;DHT22;10818;50.830;6.524;2023-02-28T08:29:06;13.70;93.40
21318;DHT22;10818;50.830;6.524;2023-02-28T08:34:10;13.00;83.20
21318;DHT22;10818;50.830;6.524;2023-02-28T08:39:11;14.10;76.50
21318;DHT22;10818;50.830;6.524;2023-02-28T08:44:12;17.40;70.40
21318;DHT22;10818;50.830;6.524;2023-02-28T08:49:12;20.10;59.30
21318;DHT22;10818;50.830;6.524;2023-02-28T08:54:13;19.10;51.40
21318;DHT22;10818;50.830;6.524;2023-02-28T08:59:16;18.60;51.70
21318;DHT22;10818;50.830;6.524;2023-02-28T09:04:16;15.60;50.80
21318;DHT22;10818;50.830;6.524;2023-02-28T09:09:17;15.90;51.50
21318;DHT22;10818;50.830;6.524;2023-02-28T09:14:17;15.40;51.30
21318;DHT22;10818;50.830;6.524;2023-02-28T09:19:18;16.60;51.10
21318;DHT22;10818;50.830;6.524;2023-02-28T09:24:18;14.30;52.20
21318;DHT22;10818;50.830;6.524;2023-02-28T09:29:20;10.90;55.20
21318;DHT22;10818;50.830;6.524;2023-02-28T09:34:21;8.00;61.60
21318;DHT22;10818;50.830;6.524;2023-02-28T09:39:22;5.90;66.70
21318;DHT22;10818;50.830;6.524;2023-02-28T09:44:30;5.80;68.60
21318;DHT22;10818;50.830;6.524;2023-02-28T09:49:34;5.60;68.40
21318;DHT22;10818;50.830;6.524;2023-02-28T09:54:37;5.40;68.60
21318;DHT22;10818;50.830;6.524;2023-02-28T10:04:44;5.20;72.10
21318;DHT22;10818;50.830;6.524;2023-02-28T10:09:53;5.60;71.90
21318;DHT22;10818;50.830;6.524;2023-02-28T10:14:55;5.50;69.70
21318;DHT22;10818;50.830;6.524;2023-02-28T10:20:00;5.40;69.50
21318;DHT22;10818;50.830;6.524;2023-02-28T10:25:04;4.90;74.90
21318;DHT22;10818;50.830;6.524;2023-02-28T10:30:12;5.00;73.60
21318;DHT22;10818;50.830;6.524;2023-02-28T10:35:15;5.10;74.40
21318;DHT22;10818;50.830;6.524;2023-02-28T10:45:23;5.10;74.30
21318;DHT22;10818;50.830;6.524;2023-02-28T10:50:32;5.40;73.40
21318;DHT22;10818;50.830;6.524;2023-02-28T10:55:33;5.20;74.90
21318;DHT22;10818;50.830;6.524;2023-02-28T11:00:34;5.50;71.80
21318;DHT22;10818;50.830;6.524;2023-02-28T11:05:35;5.50;73.20
21318;DHT22;10818;50.830;6.524;2023-02-28T11:10:36;5.40;75.20
21318;DHT22;10818;50.830;6.524;2023-02-28T11:15:37;5.50;73.90
21318;DHT22;10818;50.830;6.524;2023-02-28T11:20:37;5.40;73.60
21318;DHT22;10818;50.830;6.524;2023-02-28T11:25:38;5.50;74.90
21318;DHT22;10818;50.830;6.524;2023-02-28T11:30:39;5.90;75.80
21318;DHT22;10818;50.830;6.524;2023-02-28T11:35:40;5.70;74.10
21318;DHT22;10818;50.830;6.524;2023-02-28T11:51:15;5.90;73.40
21318;DHT22;10818;50.830;6.524;2023-02-28T11:56:31;6.00;73.10
21318;DHT22;10818;50.830;6.524;2023-02-28T12:01:36;5.90;74.10
21318;DHT22;10818;50.830;6.524;2023-02-28T12:06:45;6.20;72.90
21318;DHT22;10818;50.830;6.524;2023-02-28T12:11:55;6.10;73.60
21318;DHT22;10818;50.830;6.524;2023-02-28T12:16:59;5.90;74.60
21318;DHT22;10818;50.830;6.524;2023-02-28T12:22:22;5.90;75.10
21318;DHT22;10818;50.830;6.524;2023-02-28T12:27:27;5.80;77.20
21318;DHT22;10818;50.830;6.524;2023-02-28T12:32:38;5.70;78.90
21318;DHT22;10818;50.830;6.524;2023-02-28T12:43:09;6.00;76.90
21318;DHT22;10818;50.830;6.524;2023-02-28T12:48:14;6.10;76.10
21318;DHT22;10818;50.830;6.524;2023-02-28T12:53:23;6.40;75.10
21318;DHT22;10818;50.830;6.524;2023-02-28T12:58:38;6.40;75.20
21318;DHT22;10818;50.830;6.524;2023-02-28T13:08:59;6.30;76.30
21318;DHT22;10818;50.830;6.524;2023-02-28T13:14:04;6.20;78.70
21318;DHT22;10818;50.830;6.524;2023-02-28T13:19:09;6.30;75.80
21318;DHT22;10818;50.830;6.524;2023-02-28T13:24:11;6.50;76.50
21318;DHT22;10818;50.830;6.524;2023-02-28T13:34:16;5.90;80.70
21318;DHT22;10818;50.830;6.524;2023-02-28T13:45:18;6.20;81.70
21318;DHT22;10818;50.830;6.524;2023-02-28T13:50:21;6.30;78.60
21318;DHT22;10818;50.830;6.524;2023-02-28T13:55:31;6.40;80.20
21318;DHT22;10818;50.830;6.524;2023-02-28T14:00:44;6.60;75.20
21318;DHT22;10818;50.830;6.524;2023-02-28T14:06:07;6.60;76.20
21318;DHT22;10818;50.830;6.524;2023-02-28T14:11:09;6.80;73.30
21318;DHT22;10818;50.830;6.524;2023-02-28T14:16:24;6.70;76.40
21318;DHT22;10818;50.830;6.524;2023-02-28T14:21:33;6.60;76.50
21318;DHT22;10818;50.830;6.524;2023-02-28T14:26:47;6.70;77.20
21318;DHT22;10818;50.830;6.524;2023-02-28T14:36:53;6.80;77.70
21318;DHT22;10818;50.830;6.524;2023-02-28T14:41:55;6.90;77.30
21318;DHT22;10818;50.830;6.524;2023-02-28T14:47:01;6.80;77.00
21318;DHT22;10818;50.830;6.524;2023-02-28T15:02:24;6.30;81.20
21318;DHT22;10818;50.830;6.524;2023-02-28T15:07:25;6.60;80.90
21318;DHT22;10818;50.830;6.524;2023-02-28T15:12:29;6.60;80.40
21318;DHT22;10818;50.830;6.524;2023-02-28T15:17:29;6.80;80.70
21318;DHT22;10818;50.830;6.524;2023-02-28T15:22:33;6.60;79.10
21318;DHT22;10818;50.830;6.524;2023-02-28T15:27:35;6.30;79.50
21318;DHT22;10818;50.830;6.524;2023-02-28T15:32:41;6.20;81.00
21318;DHT22;10818;50.830;6.524;2023-02-28T15:37:46;6.10;80.40
21318;DHT22;10818;50.830;6.524;2023-02-28T15:42:57;6.20;81.80
21318;DHT22;10818;50.830;6.524;2023-02-28T15:47:58;6.20;80.80
21318;DHT22;10818;50.830;6.524;2023-02-28T15:52:59;6.20;79.90
21318;DHT22;10818;50.830;6.524;2023-02-28T15:58:01;6.10;80.10
21318;DHT22;10818;50.830;6.524;2023-02-28T16:03:21;6.00;81.50
21318;DHT22;10818;50.830;6.524;2023-02-28T16:08:22;5.80;85.20
21318;DHT22;10818;50.830;6.524;2023-02-28T16:13:22;5.70;84.30
21318;DHT22;10818;50.830;6.524;2023-02-28T16:18:23;5.90;83.30
21318;DHT22;10818;50.830;6.524;2023-02-28T16:23:24;5.70;84.80
21318;DHT22;10818;50.830;6.524;2023-02-28T16:28:27;5.70;90.10
21318;DHT22;10818;50.830;6.524;2023-02-28T16:33:31;5.60;87.90
21318;DHT22;10818;50.830;6.524;2023-02-28T16:38:32;5.60;90.00
21318;DHT22;10818;50.830;6.524;2023-02-28T16:43:34;5.60;89.80
21318;DHT22;10818;50.830;6.524;2023-02-28T16:48:34;5.50;89.40
21318;DHT22;10818;50.830;6.524;2023-02-28T16:53:35;5.40;89.20
21318;DHT22;10818;50.830;6.524;2023-02-28T16:58:35;5.20;90.30
21318;DHT22;10818;50.830;6.524;2023-02-28T17:03:36;5.20;90.50
21318;DHT22;10818;50.830;6.524;2023-02-28T17:08:36;4.90;92.00
21318;DHT22;10818;50.830;6.524;2023-02-28T17:13:37;4.70;93.50
21318;DHT22;10818;50.830;6.524;2023-02-28T17:18:37;4.50;95.40
21318;DHT22;10818;50.830;6.524;2023-02-28T17:23:39;4.20;98.00
21318;DHT22;10818;50.830;6.524;2023-02-28T17:28:39;4.10;99.90
21318;DHT22;10818;50.830;6.524;2023-02-28T17:33:40;3.80;99.90
21318;DHT22;10818;50.830;6.524;2023-02-28T17:38:41;3.70;99.90
21318;DHT22;10818;50.830;6.524;2023-02-28T17:43:41;3.50;99.90
21318;DHT22;10818;50.830;6.524;2023-02-28T17:48:42;3.40;99.90
21318;DHT22;10818;50.830;6.524;2023-02-28T17:53:42;3.20;99.90
21318;DHT22;10818;50.830;6.524;2023-02-28T17:58:43;3.20;99.90
21318;DHT22;10818;50.830;6.524;2023-02-28T18:03:43;3.10;99.90
21318;DHT22;10818;50.830;6.524;2023-02-28T18:08:44;2.90;99.90
21318;DHT22;10818;50.830;6.524;2023-02-28T18:13:48;2.80;99.90
21318;DHT22;10818;50.830;6.524;2023-02-28T18:18:49;2.70;99.90
21318;DHT22;10818;50.830;6.524;2023-02-28T18:23:50;2.70;99.90
21318;DHT22;10818;50.830;6.524;2023-02-28T18:28:52;2.60;99.90
21318;DHT22;10818;50.830;6.524;2023-02-28T18:33:52;2.50;99.90
21318;DHT22;10818;50.830;6.524;2023-02-28T18:38:53;2.40;99.90
21318;DHT22;10818;50.830;6.524;2023-02-28T18:43:54;2.40;99.90
21318;DHT22;10818;50.830;6.524;2023-02-28T18:48:54;2.20;99.90
21318;DHT22;10818;50.830;6.524;2023-02-28T18:53:55;2.10;99.90
21318;DHT22;10818;50.830;6.524;2023-02-28T18:58:55;2.20;99.90
21318;DHT22;10818;50.830;6.524;2023-02-28T19:03:57;2.10;99.90
21318;DHT22;10818;50.830;6.524;2023-02-28T19:08:58;2.00;99.90
21318;DHT22;10818;50.830;6.524;2023-02-28T19:13:59;2.00;99.90
21318;DHT22;10818;50.830;6.524;2023-02-28T19:19:00;1.80;99.90
21318;DHT22;10818;50.830;6.524;2023-02-28T19:24:01;1.80;99.90
21318;DHT22;10818;50.830;6.524;2023-02-28T19:29:02;1.80;99.90
21318;DHT22;10818;50.830;6.524;2023-02-28T19:34:03;1.70;99.90
21318;DHT22;10818;50.830;6.524;2023-02-28T19:39:03;1.60;99.90
21318;DHT22;10818;50.830;6.524;2023-02-28T19:44:04;1.70;99.90
21318;DHT22;10818;50.830;6.524;2023-02-28T19:49:05;1.70;99.90
21318;DHT22;10818;50.830;6.524;2023-02-28T19:54:05;1.70;99.90
21318;DHT22;10818;50.830;6.524;2023-02-28T19:59:05;1.60;99.90
21318;DHT22;10818;50.830;6.524;2023-02-28T20:04:06;1.50;99.90
21318;DHT22;10818;50.830;6.524;2023-02-28T20:09:06;1.50;99.90
21318;DHT22;10818;50.830;6.524;2023-02-28T20:14:07;1.40;99.90
21318;DHT22;10818;50.830;6.524;2023-02-28T20:19:07;1.30;99.90
21318;DHT22;10818;50.830;6.524;2023-02-28T20:24:08;1.10;99.90
21318;DHT22;10818;50.830;6.524;2023-02-28T20:29:09;1.20;99.90
21318;DHT22;10818;50.830;6.524;2023-02-28T20:34:09;1.10;99.90
21318;DHT22;10818;50.830;6.524;2023-02-28T20:39:10;1.10;99.90
21318;DHT22;10818;50.830;6.524;2023-02-28T20:44:11;1.10;99.90
21318;DHT22;10818;50.830;6.524;2023-02-28T20:49:12;1.00;99.90
21318;DHT22;10818;50.830;6.524;2023-02-28T20:54:14;0.90;99.90
21318;DHT22;10818;50.830;6.524;2023-02-28T20:59:15;1.00;99.90
21318;DHT22;10818;50.830;6.524;2023-02-28T21:04:15;0.90;99.90
21318;DHT22;10818;50.830;6.524;2023-02-28T21:09:16;0.80;99.90
21318;DHT22;10818;50.830;6.524;2023-02-28T21:14:17;0.80;99.90
21318;DHT22;10818;50.830;6.524;2023-02-28T21:19:17;0.80;99.90
21318;DHT22;10818;50.830;6.524;2023-02-28T21:24:18;0.70;99.90
21318;DHT22;10818;50.830;6.524;2023-02-28T21:29:19;0.70;99.90
21318;DHT22;10818;50.830;6.524;2023-02-28T21:34:19;0.50;99.90
21318;DHT22;10818;50.830;6.524;2023-02-28T21:39:21;0.50;99.90
21318;DHT22;10818;50.830;6.524;2023-02-28T21:44:24;0.50;99.90
21318;DHT22;10818;50.830;6.524;2023-02-28T21:49:27;0.50;99.90
21318;DHT22;10818;50.830;6.524;2023-02-28T21:54:28;0.50;99.90
21318;DHT22;10818;50.830;6.524;2023-02-28T21:59:28;0.40;99.90
21318;DHT22;10818;50.830;6.524;2023-02-28T22:04:29;0.30;99.90
21318;DHT22;10818;50.830;6.524;2023-02-28T22:09:30;0.30;99.90
21318;DHT22;10818;50.830;6.524;2023-02-28T22:14:30;0.20;99.90
21318;DHT22;10818;50.830;6.524;2023-02-28T22:19:31;0.30;99.90
21318;DHT22;10818;50.830;6.524;2023-02-28T22:24:31;0.30;99.90
21318;DHT22;10818;50.830;6.524;2023-02-28T22:29:31;0.20;99.90
21318;DHT22;10818;50.830;6.524;2023-02-28T22:34:32;0.20;99.90
21318;DHT22;10818;50.830;6.524;2023-02-28T22:39:32;0.00;99.90
21318;DHT22;10818;50.830;6.524;2023-02-28T22:44:33;0.00;99.90
21318;DHT22;10818;50.830;6.524;2023-02-28T22:49:33;-0.10;99.90
21318;DHT22;10818;50.830;6.524;2023-02-28T22:54:34;-0.10;99.90
21318;DHT22;10818;50.830;6.524;2023-02-28T22:59:34;-0.20;99.90
21318;DHT22;10818;50.830;6.524;2023-02-28T23:04:35;-0.20;99.90
21318;DHT22;10818;50.830;6.524;2023-02-28T23:09:36;-0.20;99.90
21318;DHT22;10818;50.830;6.524;2023-02-28T23:14:36;-0.30;99.90
21318;DHT22;10818;50.830;6.524;2023-02-28T23:19:37;-0.40;99.90
21318;DHT22;10818;50.830;6.524;2023-02-28T23:24:37;-0.40;99.90
21318;DHT22;10818;50.830;6.524;2023-02-28T23:29:38;-0.40;99.90
21318;DHT22;10818;50.830;6.524;2023-02-28T23:34:38;-0.50;99.90
21318;DHT22;10818;50.830;6.524;2023-02-28T23:39:39;-0.50;99.90
21318;DHT22;10818;50.830;6.524;2023-02-28T23:44:40;-0.50;99.90
21318;DHT22;10818;50.830;6.524;2023-02-28T23:49:41;-0.50;99.90
21318;DHT22;10818;50.830;6.524;2023-02-28T23:54:41;-0.70;99.90
21318;DHT22;10818;50.830;6.524;2023-02-28T23:59:42;-0.70;99.90
